地図

経路データ

SID SEASON NUMBER BASIN SUBBASIN NAME ISO_TIME NATURE LAT LON WMO_WIND WMO_PRES WMO_AGENCY TRACK_TYPE DIST2LAND LANDFALL IFLAG USA_AGENCY USA_ATCF_ID USA_LAT USA_LON USA_RECORD USA_STATUS USA_WIND USA_PRES USA_SSHS USA_R34_NE USA_R34_SE USA_R34_SW USA_R34_NW USA_R50_NE USA_R50_SE USA_R50_SW USA_R50_NW USA_R64_NE USA_R64_SE USA_R64_SW USA_R64_NW USA_POCI USA_ROCI USA_RMW USA_EYE TOKYO_LAT TOKYO_LON TOKYO_GRADE TOKYO_WIND TOKYO_PRES TOKYO_R50_DIR TOKYO_R50_LONG TOKYO_R50_SHORT TOKYO_R30_DIR TOKYO_R30_LONG TOKYO_R30_SHORT TOKYO_LAND CMA_LAT CMA_LON CMA_CAT CMA_WIND CMA_PRES HKO_LAT HKO_LON HKO_CAT HKO_WIND HKO_PRES NEWDELHI_LAT NEWDELHI_LON NEWDELHI_GRADE NEWDELHI_WIND NEWDELHI_PRES NEWDELHI_CI NEWDELHI_DP NEWDELHI_POCI REUNION_LAT REUNION_LON REUNION_TYPE REUNION_WIND REUNION_PRES REUNION_TNUM REUNION_CI REUNION_RMW REUNION_R34_NE REUNION_R34_SE REUNION_R34_SW REUNION_R34_NW REUNION_R50_NE REUNION_R50_SE REUNION_R50_SW REUNION_R50_NW REUNION_R64_NE REUNION_R64_SE REUNION_R64_SW REUNION_R64_NW BOM_LAT BOM_LON BOM_TYPE BOM_WIND BOM_PRES BOM_TNUM BOM_CI BOM_RMW BOM_R34_NE BOM_R34_SE BOM_R34_SW BOM_R34_NW BOM_R50_NE BOM_R50_SE BOM_R50_SW BOM_R50_NW BOM_R64_NE BOM_R64_SE BOM_R64_SW BOM_R64_NW BOM_ROCI BOM_POCI BOM_EYE BOM_POS_METHOD BOM_PRES_METHOD NADI_LAT NADI_LON NADI_CAT NADI_WIND NADI_PRES WELLINGTON_LAT WELLINGTON_LON WELLINGTON_WIND WELLINGTON_PRES DS824_LAT DS824_LON DS824_STAGE DS824_WIND DS824_PRES TD9636_LAT TD9636_LON TD9636_STAGE TD9636_WIND TD9636_PRES TD9635_LAT TD9635_LON TD9635_WIND TD9635_PRES TD9635_ROCI NEUMANN_LAT NEUMANN_LON NEUMANN_CLASS NEUMANN_WIND NEUMANN_PRES MLC_LAT MLC_LON MLC_CLASS MLC_WIND MLC_PRES USA_GUST BOM_GUST BOM_GUST_PER REUNION_GUST REUNION_GUST_PER USA_SEAHGT USA_SEARAD_NE USA_SEARAD_SE USA_SEARAD_SW USA_SEARAD_NW STORM_SPEED STORM_DIR
1927228N12145 1927 38 WP MM NOT_NAMED 1927-08-15 22:00:00 NR 11.6000 144.800 main 1547 1547 __________O___ -1 11.6000 144.800 4 16 295
1927228N12145 1927 38 WP MM NOT_NAMED 1927-08-16 00:00:00 NR 11.8244 144.303 main 1578 1578 __________P___ -1 11.8244 144.303 4 16 295
1927228N12145 1927 38 WP MM NOT_NAMED 1927-08-16 03:00:00 NR 12.1573 143.561 main 1636 1638 __________P___ -1 12.1573 143.561 4 16 295
1927228N12145 1927 38 WP MM NOT_NAMED 1927-08-16 06:00:00 NR 12.4829 142.833 main 1659 1656 __________P___ -1 12.4829 142.833 4 15 295
1927228N12145 1927 38 WP MM NOT_NAMED 1927-08-16 09:00:00 NR 12.7979 142.128 main 1669 1665 __________P___ -1 12.7979 142.128 4 15 295
1927228N12145 1927 38 WP MM NOT_NAMED 1927-08-16 10:00:00 NR 12.9000 141.900 main 1671 1667 __________O___ -1 12.9000 141.900 4 14 295
1927228N12145 1927 38 WP MM NOT_NAMED 1927-08-16 12:00:00 NR 13.0995 141.455 main 1675 1652 __________P___ -1 13.0995 141.455 4 14 295
1927228N12145 1927 38 WP MM NOT_NAMED 1927-08-16 15:00:00 NR 13.3866 140.813 main 1652 1591 __________P___ -1 13.3866 140.813 4 14 295
1927228N12145 1927 38 WP MM NOT_NAMED 1927-08-16 18:00:00 NR 13.6593 140.195 main 1593 1533 __________P___ -1 13.6593 140.195 4 13 294
1927228N12145 1927 38 WP MM NOT_NAMED 1927-08-16 21:00:00 NR 13.9173 139.597 main 1533 1514 __________P___ -1 13.9173 139.597 4 13 294
1927228N12145 1927 38 WP MM NOT_NAMED 1927-08-16 22:00:00 NR 14.0000 139.400 main 1514 1477 __________O___ -1 14.0000 139.400 4 12 293
1927228N12145 1927 38 WP MM NOT_NAMED 1927-08-17 00:00:00 NR 14.1635 139.013 main 1477 1418 __________P___ -1 14.1635 139.013 4 12 293
1927228N12145 1927 38 WP MM NOT_NAMED 1927-08-17 03:00:00 NR 14.3965 138.445 main 1418 1368 __________P___ -1 14.3965 138.445 4 12 292
1927228N12145 1927 38 WP MM NOT_NAMED 1927-08-17 06:00:00 NR 14.6178 137.879 main 1368 1309 __________P___ -1 14.6178 137.879 4 12 291
1927228N12145 1927 38 WP MM NOT_NAMED 1927-08-17 09:00:00 NR 14.8305 137.299 main 1309 1290 __________P___ -1 14.8305 137.299 4 12 291
1927228N12145 1927 38 WP MM NOT_NAMED 1927-08-17 10:00:00 NR 14.9000 137.100 main 1290 1250 __________O___ -1 14.9000 137.100 4 13 290
1927228N12145 1927 38 WP MM NOT_NAMED 1927-08-17 12:00:00 NR 15.0440 136.686 main 1250 1186 __________P___ -1 15.0440 136.686 4 13 289
1927228N12145 1927 38 WP MM NOT_NAMED 1927-08-17 15:00:00 NR 15.2541 136.047 main 1186 1127 __________P___ -1 15.2541 136.047 4 13 288
1927228N12145 1927 38 WP MM NOT_NAMED 1927-08-17 18:00:00 NR 15.4541 135.391 main 1131 1063 __________P___ -1 15.4541 135.391 4 13 287
1927228N12145 1927 38 WP MM NOT_NAMED 1927-08-17 21:00:00 NR 15.6411 134.724 main 1063 1047 __________P___ -1 15.6411 134.724 4 13 286
1927228N12145 1927 38 WP MM NOT_NAMED 1927-08-17 22:00:00 NR 15.7000 134.500 main 1047 1011 __________O___ -1 15.7000 134.500 4 13 285
1927228N12145 1927 38 WP MM NOT_NAMED 1927-08-18 00:00:00 NR 15.8138 134.050 main 1011 952 __________P___ -1 15.8138 134.050 4 13 284
1927228N12145 1927 38 WP MM NOT_NAMED 1927-08-18 03:00:00 NR 15.9721 133.369 main 952 890 __________P___ -1 15.9721 133.369 4 13 283
1927228N12145 1927 38 WP MM NOT_NAMED 1927-08-18 06:00:00 NR 16.1184 132.689 main 890 837 __________P___ -1 16.1184 132.689 4 13 282
1927228N12145 1927 38 WP MM NOT_NAMED 1927-08-18 09:00:00 NR 16.2557 132.019 main 837 819 __________P___ -1 16.2557 132.019 4 13 282
1927228N12145 1927 38 WP MM NOT_NAMED 1927-08-18 10:00:00 NR 16.3000 131.800 main 819 790 __________O___ -1 16.3000 131.800 4 12 282
1927228N12145 1927 38 WP MM NOT_NAMED 1927-08-18 12:00:00 NR 16.3825 131.403 main 790 746 __________P___ -1 16.3825 131.403 4 12 282
1927228N12145 1927 38 WP MM NOT_NAMED 1927-08-18 15:00:00 NR 16.5004 130.820 main 746 691 __________P___ -1 16.5004 130.820 4 12 282
1927228N12145 1927 38 WP MM NOT_NAMED 1927-08-18 18:00:00 NR 16.6203 130.216 main 691 636 __________P___ -1 16.6203 130.216 4 12 282
1927228N12145 1927 38 WP MM NOT_NAMED 1927-08-18 21:00:00 NR 16.7519 129.546 main 636 617 __________P___ -1 16.7519 129.546 4 13 282
1927228N12145 1927 38 WP MM NOT_NAMED 1927-08-18 22:00:00 NR 16.8000 129.300 main 617 570 __________O___ -1 16.8000 129.300 4 16 281
1927228N12145 1927 38 WP MM NOT_NAMED 1927-08-19 00:00:00 NR 16.9057 128.747 main 570 510 __________P___ -1 16.9057 128.747 4 17 281
1927228N12145 1927 38 WP MM NOT_NAMED 1927-08-19 03:00:00 NR 17.0767 127.841 main 510 453 __________P___ -1 17.0767 127.841 4 18 281
1927228N12145 1927 38 WP MM NOT_NAMED 1927-08-19 06:00:00 NR 17.2565 126.883 main 462 363 __________P___ -1 17.2565 126.883 4 19 281
1927228N12145 1927 38 WP MM NOT_NAMED 1927-08-19 09:00:00 NR 17.4393 125.916 main 363 344 __________P___ -1 17.4393 125.916 4 19 281
1927228N12145 1927 38 WP MM NOT_NAMED 1927-08-19 10:00:00 NR 17.5000 125.600 main 333 273 __________O___ -1 17.5000 125.600 4 18 279
1927228N12145 1927 38 WP MM NOT_NAMED 1927-08-19 12:00:00 NR 17.5844 124.993 main 273 185 __________P___ -1 17.5844 124.993 4 17 278
1927228N12145 1927 38 WP MM NOT_NAMED 1927-08-19 15:00:00 NR 17.7111 124.096 main 185 105 __________P___ -1 17.7111 124.096 4 17 280
1927228N12145 1927 38 WP MM NOT_NAMED 1927-08-19 18:00:00 NR 17.8709 123.221 main 105 21 __________P___ -1 17.8709 123.221 4 17 283
1927228N12145 1927 38 WP MM NOT_NAMED 1927-08-19 21:00:00 NR 18.1011 122.375 main 21 0 __________P___ -1 18.1011 122.375 4 17 287
1927228N12145 1927 38 WP MM NOT_NAMED 1927-08-19 22:00:00 NR 18.2000 122.100 main 0 0 __________O___ -1 18.2000 122.100 4 17 296
1927228N12145 1927 38 WP MM NOT_NAMED 1927-08-20 00:00:00 NR 18.4648 121.579 main 11 10 __________P___ -1 18.4648 121.579 4 17 301
1927228N12145 1927 38 WP MM NOT_NAMED 1927-08-20 03:00:00 NR 18.9391 120.824 main 33 44 __________P___ -1 18.9391 120.824 4 17 305
1927228N12145 1927 38 WP MM NOT_NAMED 1927-08-20 06:00:00 NR 19.4537 120.068 main 124 131 __________P___ -1 19.4537 120.068 4 18 305
1927228N12145 1927 38 WP MM NOT_NAMED 1927-08-20 09:00:00 NR 19.9493 119.277 main 214 229 __________P___ -1 19.9493 119.277 4 18 303
1927228N12145 1927 38 WP MM NOT_NAMED 1927-08-20 10:00:00 NR 20.1000 119.000 main 252 252 __________O___ -1 20.1000 119.000 4 18 297
1927228N12145 1927 38 WP MM NOT_NAMED 1927-08-20 12:00:00 NR 20.3685 118.407 main 291 266 __________P___ -1 20.3685 118.407 4 19 294
1927228N12145 1927 38 WP MM NOT_NAMED 1927-08-20 15:00:00 NR 20.7280 117.473 main 266 203 __________P___ -1 20.7280 117.473 4 19 290
1927228N12145 1927 38 WP MM NOT_NAMED 1927-08-20 18:00:00 NR 21.0243 116.505 main 203 157 __________P___ -1 21.0243 116.505 4 19 286
1927228N12145 1927 38 WP MM NOT_NAMED 1927-08-20 21:00:00 NR 21.2452 115.526 main 157 140 __________P___ -1 21.2452 115.526 4 19 283
1927228N12145 1927 38 WP MM NOT_NAMED 1927-08-20 22:00:00 NR 21.3000 115.200 main 137 105 __________O___ -1 21.3000 115.200 4 18 278
1927228N12145 1927 38 WP MM NOT_NAMED 1927-08-21 00:00:00 NR 21.3655 114.556 main 105 83 __________P___ -1 21.3655 114.556 4 18 274
1927228N12145 1927 38 WP MM NOT_NAMED 1927-08-21 03:00:00 NR 21.3948 113.592 main 83 44 __________P___ -1 21.3948 113.592 4 18 271
1927228N12145 1927 38 WP MM NOT_NAMED 1927-08-21 06:00:00 NR 21.3857 112.639 main 44 15 __________P___ -1 21.3857 112.639 4 18 270
1927228N12145 1927 38 WP MM NOT_NAMED 1927-08-21 09:00:00 NR 21.3880 111.705 main 15 11 __________P___ -1 21.3880 111.705 4 17 271
1927228N12145 1927 38 WP MM NOT_NAMED 1927-08-21 10:00:00 NR 21.4000 111.400 main 10 0 __________O___ -1 21.4000 111.400 4 17 274
1927228N12145 1927 38 WP MM NOT_NAMED 1927-08-21 12:00:00 NR 21.4484 110.798 main 0 0 __________P___ -1 21.4484 110.798 4 17 277
1927228N12145 1927 38 WP MM NOT_NAMED 1927-08-21 15:00:00 NR 21.5732 109.915 main 0 0 __________P___ -1 21.5732 109.915 4 17 280
1927228N12145 1927 38 WP MM NOT_NAMED 1927-08-21 18:00:00 NR 21.7420 109.047 main 0 0 __________P___ -1 21.7420 109.047 4 16 283
1927228N12145 1927 38 WP MM NOT_NAMED 1927-08-21 21:00:00 NR 21.9343 108.186 main 0 0 __________P___ -1 21.9343 108.186 4 16 284
1927228N12145 1927 38 WP MM NOT_NAMED 1927-08-21 22:00:00 NR 22.0000 107.900 main 0 __________O___ -1 22.0000 107.900 4 16 284

デジタル台風データ・検索

IBTrACS Databaseについて

本データベースは、米国NOAAが公開する1842年以降の世界の熱帯低気圧のベストトラックデータアーカイブInternational Best Track Archive for Climate Stewardship (IBTrACS)を、ウェブで閲覧しやすい形式に変換したものです。

最終更新日:2021-11-26